Time;durP1;ratioP1;P1;durP2;ratioP2;P2;SDS_P1;SDS_P2;PMS_P1;PMS_P2;Temp;Humidity;BMP_temperature;BMP_pressure;BME280_temperature;BME280_humidity;BME280_pressure;Samples;Min_cycle;Max_cycle;Signal;HPM_P1;HPM_P2
2023/08/04 04:06:16;;;;;;;3.20;2.08;;;;;;;16.44;100.00;99903.56;6047640;27;20134;-87
2023/08/04 04:09:20;;;;;;;3.58;2.60;;;;;;;16.49;100.00;99942.59;5413454;27;33585;-87
2023/08/04 04:37:16;;;;;;;2.37;2.17;;;;;;;16.67;100.00;99963.53;748652;27;20435;-87
2023/08/04 04:40:19;;;;;;;1.98;1.85;;;;;;;16.66;100.00;99939.28;5380750;33;33568;-87
2023/08/04 04:43:22;;;;;;;4.15;2.28;;;;;;;16.68;100.00;99929.00;5381115;33;33467;-87
2023/08/04 04:46:25;;;;;;;2.72;1.73;;;;;;;16.70;100.00;99896.97;5383175;33;33988;-87
2023/08/04 04:49:28;;;;;;;1.75;1.65;;;;;;;16.75;100.00;99883.53;5371012;33;33961;-87
2023/08/04 04:52:34;;;;;;;2.30;2.00;;;;;;;16.80;100.00;99889.13;5421825;27;33899;-87
2023/08/04 06:16:27;;;;;;;2.35;2.15;;;;;;;18.66;100.00;99864.03;4214562;27;20137;-87
2023/08/04 06:19:31;;;;;;;4.00;2.08;;;;;;;18.78;100.00;99853.12;5419342;27;34610;-86
2023/08/04 06:22:35;;;;;;;3.92;2.10;;;;;;;18.93;100.00;99858.84;5382555;33;34668;-87
2023/08/04 06:25:38;;;;;;;2.60;1.83;;;;;;;19.01;100.00;99860.31;5381487;33;35264;-86
2023/08/04 06:28:41;;;;;;;2.97;1.92;;;;;;;19.13;100.00;99866.56;5381611;32;35344;-90
2023/08/04 06:31:44;;;;;;;2.08;1.83;;;;;;;19.26;100.00;99862.66;5367266;33;35333;-89
2023/08/04 06:34:47;;;;;;;2.17;1.70;;;;;;;19.19;100.00;99871.03;5367199;33;34937;-86
2023/08/04 06:37:52;;;;;;;2.22;1.60;;;;;;;19.37;100.00;99872.69;5380405;33;33783;-86
2023/08/04 06:40:58;;;;;;;1.83;1.65;;;;;;;19.51;100.00;99870.47;5379093;33;34721;-86
2023/08/04 06:44:01;;;;;;;6.82;2.28;;;;;;;19.72;100.00;99873.53;5381046;33;34299;-86
2023/08/04 06:47:04;;;;;;;2.10;1.80;;;;;;;19.75;100.00;99878.50;5355603;33;33841;-86
2023/08/04 06:50:08;;;;;;;5.37;1.70;;;;;;;19.78;100.00;99878.00;5380761;33;34032;-86
2023/08/04 06:53:10;;;;;;;3.45;2.00;;;;;;;20.02;100.00;99875.88;5383458;33;34684;-86
2023/08/04 06:56:14;;;;;;;4.18;1.70;;;;;;;20.22;100.00;99881.59;5370319;33;33401;-87
2023/08/04 06:59:17;;;;;;;2.80;1.85;;;;;;;20.31;100.00;99873.78;5383670;33;33697;-87
2023/08/04 07:02:24;;;;;;;2.35;1.45;;;;;;;20.55;100.00;99872.47;5463061;27;34110;-88
2023/08/04 07:05:27;;;;;;;2.03;1.65;;;;;;;20.79;100.00;99889.41;5407222;27;33622;-87
2023/08/04 07:08:30;;;;;;;2.65;1.95;;;;;;;20.93;100.00;99897.22;5433911;27;34801;-87
2023/08/04 07:11:33;;;;;;;3.53;1.62;;;;;;;21.19;100.00;99892.81;5388848;32;34021;-87
2023/08/04 07:14:36;;;;;;;2.90;1.30;;;;;;;21.14;100.00;99892.78;5400347;27;33645;-87
2023/08/04 07:17:38;;;;;;;1.80;1.48;;;;;;;21.39;100.00;99879.34;5386715;33;33913;-86
2023/08/04 07:20:41;;;;;;;1.75;1.50;;;;;;;21.89;100.00;99889.00;5391607;33;34414;-86
2023/08/04 07:23:44;;;;;;;2.75;1.48;;;;;;;22.05;100.00;99891.84;5380372;33;34561;-87
2023/08/04 07:26:48;;;;;;;1.37;1.27;;;;;;;22.01;100.00;99902.50;5365636;33;33877;-86
2023/08/04 07:29:50;;;;;;;1.92;1.62;;;;;;;21.99;100.00;99899.19;5390538;33;33899;-87
2023/08/04 07:32:53;;;;;;;2.35;1.90;;;;;;;22.17;100.00;99900.69;5392770;33;33683;-86
2023/08/04 07:39:48;;;;;;;2.03;1.30;;;;;;;22.20;100.00;99900.19;5406087;27;33520;-86
2023/08/04 07:42:50;;;;;;;2.20;1.52;;;;;;;22.27;100.00;99894.47;5421780;27;34698;-86
2023/08/04 07:45:54;;;;;;;1.60;1.50;;;;;;;22.45;100.00;99891.25;5393562;33;33857;-86
2023/08/04 07:48:57;;;;;;;4.10;1.95;;;;;;;22.76;100.00;99894.94;5425435;27;34086;-86
2023/08/04 07:52:00;;;;;;;1.80;1.40;;;;;;;22.58;100.00;99909.13;5477904;27;34143;-86
2023/08/04 07:55:03;;;;;;;2.03;1.70;;;;;;;22.18;100.00;99914.16;5446061;27;34077;-86
2023/08/04 07:58:07;;;;;;;2.75;1.75;;;;;;;21.96;100.00;99913.44;5451498;27;34019;-86
2023/08/04 08:17:09;;;;;;;3.22;1.87;;;;;;;23.49;100.00;99905.75;5414985;27;31305;-86
2023/08/04 08:20:13;;;;;;;3.12;1.80;;;;;;;23.88;100.00;99907.13;5382019;33;34307;-86
2023/08/04 08:23:18;;;;;;;1.73;1.40;;;;;;;23.80;100.00;99896.69;5396873;33;34290;-86
2023/08/04 08:26:21;;;;;;;3.28;2.12;;;;;;;23.50;100.00;99898.34;5396905;33;34034;-86
2023/08/04 08:29:24;;;;;;;2.55;1.77;;;;;;;23.72;100.00;99898.06;5382908;33;34153;-85
2023/08/04 08:32:26;;;;;;;2.55;1.60;;;;;;;23.77;100.00;99898.88;5394605;33;33916;-85
2023/08/04 08:35:30;;;;;;;2.80;1.65;;;;;;;23.95;100.00;99902.16;5396871;33;34951;-86
2023/08/04 08:38:33;;;;;;;3.35;1.45;;;;;;;24.11;100.00;99898.28;5393461;33;34199;-86
2023/08/04 08:41:36;;;;;;;3.85;1.80;;;;;;;24.62;100.00;99900.84;5371099;33;34713;-85
2023/08/04 08:44:42;;;;;;;2.25;1.60;;;;;;;24.79;100.00;99896.94;5408784;28;34904;-84
2023/08/04 08:47:49;;;;;;;2.33;1.60;;;;;;;24.75;100.00;99888.41;5389434;32;34909;-85
2023/08/04 08:51:01;;;;;;;1.77;1.60;;;;;;;24.76;100.00;99887.28;5398180;32;34082;-84
2023/08/04 08:54:05;;;;;;;2.45;2.03;;;;;;;25.00;100.00;99886.59;5412412;32;34227;-85
2023/08/04 08:57:08;;;;;;;2.50;1.62;;;;;;;25.22;100.00;99886.22;5400873;32;33922;-84
2023/08/04 09:00:12;;;;;;;2.30;2.10;;;;;;;25.04;100.00;99883.00;5399485;32;34946;-84
2023/08/04 09:03:15;;;;;;;3.42;1.60;;;;;;;24.82;100.00;99885.34;5412177;32;33895;-85
2023/08/04 09:06:21;;;;;;;1.98;1.77;;;;;;;24.78;100.00;99898.03;5411741;32;34059;-84
2023/08/04 09:09:24;;;;;;;2.22;2.00;;;;;;;25.02;100.00;99890.72;5393241;32;34074;-86
2023/08/04 09:12:28;;;;;;;2.80;1.62;;;;;;;25.11;100.00;99885.44;5391021;32;33822;-87
2023/08/04 09:15:33;;;;;;;3.00;2.00;;;;;;;25.33;100.00;99899.63;5405370;32;34175;-87
2023/08/04 09:18:39;;;;;;;2.37;1.80;;;;;;;25.66;100.00;99904.59;5391669;33;34085;-87
2023/08/04 09:21:42;;;;;;;1.95;1.65;;;;;;;25.52;100.00;99902.50;5381323;33;34078;-84
2023/08/04 09:25:04;;;;;;;1.75;1.35;;;;;;;25.32;100.00;99902.66;5395321;33;34163;-84
2023/08/04 09:28:17;;;;;;;1.83;1.73;;;;;;;25.06;100.00;99902.81;5380726;33;34115;-85
2023/08/04 09:31:20;;;;;;;2.60;1.60;;;;;;;25.08;100.00;99905.28;5392456;32;34267;-85
2023/08/04 09:34:23;;;;;;;2.72;1.75;;;;;;;25.15;100.00;99897.53;5385254;32;34304;-85
2023/08/04 09:37:27;;;;;;;2.05;1.50;;;;;;;25.22;100.00;99892.53;5378928;33;33899;-84
2023/08/04 09:40:34;;;;;;;2.62;1.60;;;;;;;25.45;100.00;99885.47;5391044;32;33797;-84
2023/08/04 09:43:45;;;;;;;;;;;;;;;25.62;100.00;99884.22;5407335;32;33791;-85
2023/08/04 09:46:50;;;;;;;2.03;1.58;;;;;;;25.47;100.00;99885.16;5391262;33;34174;-85
2023/08/04 09:49:54;;;;;;;2.08;1.67;;;;;;;25.44;100.00;99877.47;5395585;32;33457;-86
2023/08/04 09:53:03;;;;;;;2.33;1.60;;;;;;;25.34;100.00;99881.16;5414383;32;34429;-87
2023/08/04 09:56:08;;;;;;;2.37;1.73;;;;;;;25.75;100.00;99870.56;5395423;32;33621;-87
2023/08/04 09:59:12;;;;;;;3.58;1.52;;;;;;;25.89;100.00;99859.72;5390991;33;33595;-87
2023/08/04 10:02:18;;;;;;;2.78;1.45;;;;;;;26.09;100.00;99861.44;5389176;33;35004;-85
2023/08/04 10:05:21;;;;;;;4.05;1.70;;;;;;;26.33;100.00;99850.38;5403698;33;33848;-85
2023/08/04 10:08:24;;;;;;;2.33;1.52;;;;;;;26.42;100.00;99850.53;5389543;33;34604;-85
2023/08/04 10:11:27;;;;;;;2.47;1.65;;;;;;;26.42;100.00;99842.25;5379471;33;33815;-85
2023/08/04 10:14:30;;;;;;;1.42;1.33;;;;;;;26.28;100.00;99844.91;5403414;32;33966;-85
2023/08/04 10:17:33;;;;;;;2.28;2.10;;;;;;;26.49;100.00;99850.16;5377421;32;33761;-85
2023/08/04 10:20:36;;;;;;;2.08;1.75;;;;;;;26.76;100.00;99847.59;5402260;33;34826;-85
2023/08/04 10:23:40;;;;;;;2.08;1.90;;;;;;;26.87;100.00;99859.31;5389180;32;34289;-85
2023/08/04 10:26:46;;;;;;;1.67;1.58;;;;;;;27.12;100.00;99853.41;5389631;33;34598;-85
2023/08/04 10:30:10;;;;;;;1.70;1.60;;;;;;;27.15;100.00;99860.31;5402766;33;33687;-85
2023/08/04 10:33:13;;;;;;;2.58;2.15;;;;;;;27.35;100.00;99867.44;5390701;33;34161;-85
2023/08/04 10:36:16;;;;;;;3.05;1.42;;;;;;;27.35;100.00;99859.97;5377083;33;33849;-85
2023/08/04 10:39:30;;;;;;;3.22;1.98;;;;;;;27.75;100.00;99857.59;5403531;33;35193;-85
2023/08/04 10:43:00;;;;;;;2.42;1.65;;;;;;;27.27;92.20;99855.13;5402268;32;35024;-85
2023/08/04 10:46:10;;;;;;;1.67;1.50;;;;;;;28.07;89.37;99858.69;5401190;33;33812;-86
2023/08/04 10:49:13;;;;;;;2.20;1.50;;;;;;;28.75;83.65;99862.53;5401998;32;33995;-85
2023/08/04 10:52:16;;;;;;;2.10;1.90;;;;;;;28.70;82.92;99852.38;5387187;33;34010;-85
2023/08/04 10:55:19;;;;;;;4.12;1.70;;;;;;;29.02;81.34;99850.59;5400291;32;33963;-85
2023/08/04 10:58:23;;;;;;;1.92;1.60;;;;;;;29.42;76.82;99855.41;5404458;32;35260;-85
2023/08/04 11:01:28;;;;;;;6.75;1.95;;;;;;;30.02;77.25;99854.94;5419821;32;33484;-85
2023/08/04 11:04:36;;;;;;;3.17;1.60;;;;;;;29.47;75.29;99846.97;5393992;32;34003;-85
2023/08/04 11:07:46;;;;;;;1.90;1.60;;;;;;;28.95;78.97;99858.47;5404023;32;33491;-85
2023/08/04 11:10:54;;;;;;;3.45;1.85;;;;;;;28.83;80.24;99859.00;5411017;32;34084;-85
2023/08/04 11:13:57;;;;;;;;;;;;;;;28.79;79.23;99865.50;5419292;32;34836;-85
2023/08/04 11:17:01;;;;;;;2.95;1.70;;;;;;;28.64;77.89;99858.38;5404774;32;33827;-86
2023/08/04 11:20:14;;;;;;;1.62;1.23;;;;;;;29.25;74.40;99851.41;5404735;32;33367;-85
2023/08/04 11:23:28;;;;;;;1.73;1.60;;;;;;;29.94;72.70;99848.22;5418442;32;33925;-85
2023/08/04 11:26:32;;;;;;;4.07;1.67;;;;;;;30.97;71.42;99850.78;5402856;32;33611;-85
2023/08/04 11:29:35;;;;;;;6.25;1.87;;;;;;;31.25;73.62;99854.03;5391797;32;33896;-85
2023/08/04 11:32:38;;;;;;;2.45;1.87;;;;;;;31.57;66.37;99852.69;5392667;32;33425;-85
2023/08/04 11:35:41;;;;;;;1.65;1.55;;;;;;;31.44;67.23;99851.72;5404097;32;34125;-85
2023/08/04 11:38:44;;;;;;;2.05;1.80;;;;;;;32.49;62.72;99844.59;5417571;32;34063;-85
2023/08/04 11:41:47;;;;;;;2.00;1.50;;;;;;;33.73;59.53;99840.44;5391839;32;33877;-85
2023/08/04 11:44:50;;;;;;;2.40;1.70;;;;;;;34.30;56.12;99837.56;5403638;32;33639;-85
2023/08/04 11:47:57;;;;;;;2.20;1.50;;;;;;;35.12;50.88;99841.25;5391481;32;34167;-85
2023/08/04 11:51:00;;;;;;;2.60;1.77;;;;;;;35.66;54.23;99835.19;5416513;32;34805;-85
2023/08/04 11:54:03;;;;;;;3.92;1.60;;;;;;;36.45;47.83;99837.94;5403346;32;33509;-85
2023/08/04 11:57:06;;;;;;;2.72;1.35;;;;;;;36.79;45.09;99841.09;5391999;32;33490;-85
2023/08/04 12:00:09;;;;;;;1.60;1.50;;;;;;;34.64;51.08;99843.84;5390602;32;34088;-85
2023/08/04 12:03:14;;;;;;;3.22;1.80;;;;;;;34.90;55.08;99843.44;5384791;32;34626;-86
2023/08/04 12:06:19;;;;;;;3.33;1.42;;;;;;;35.93;49.51;99841.06;5371941;33;33945;-86
2023/08/04 12:09:23;;;;;;;1.87;1.73;;;;;;;36.93;46.61;99835.00;5397997;32;32534;-90
2023/08/04 12:12:40;;;;;;;1.67;1.40;;;;;;;37.44;43.61;99826.37;5401826;32;33778;-90
2023/08/04 12:15:53;;;;;;;3.95;1.80;;;;;;;38.10;43.55;99824.38;5389379;32;33925;-86
2023/08/04 12:19:05;;;;;;;1.70;1.30;;;;;;;39.00;41.12;99824.47;5414532;32;33413;-86
2023/08/04 12:22:08;;;;;;;3.67;1.60;;;;;;;40.50;38.28;99825.06;5414758;32;34399;-86
2023/08/04 12:25:12;;;;;;;3.70;1.40;;;;;;;39.68;38.83;99818.75;5400918;32;33814;-86
2023/08/04 12:28:15;;;;;;;1.50;1.40;;;;;;;37.16;43.13;99827.47;5401129;32;33908;-86
2023/08/04 12:31:19;;;;;;;2.45;1.37;;;;;;;37.57;42.88;99827.88;5414584;32;34592;-86
2023/08/04 12:34:22;;;;;;;1.37;1.20;;;;;;;39.24;39.53;99820.31;5392316;32;33804;-86
2023/08/04 12:37:28;;;;;;;3.53;1.65;;;;;;;38.24;39.66;99821.78;5405799;32;33895;-86
2023/08/04 12:40:32;;;;;;;1.70;1.60;;;;;;;35.80;44.46;99818.72;5417309;32;35005;-86
2023/08/04 12:43:36;;;;;;;2.40;1.50;;;;;;;33.28;50.88;99830.88;5416337;32;34043;-86
2023/08/04 12:46:39;;;;;;;2.00;1.60;;;;;;;31.59;58.13;99823.38;5402730;32;33807;-86
2023/08/04 12:49:42;;;;;;;1.48;1.37;;;;;;;33.20;54.72;99820.63;5402695;32;33827;-86
2023/08/04 12:52:45;;;;;;;1.37;1.27;;;;;;;36.32;48.51;99812.00;5402824;32;34515;-86
2023/08/04 12:55:48;;;;;;;1.70;1.50;;;;;;;39.65;38.82;99820.34;5403463;32;33378;-86
2023/08/04 12:58:51;;;;;;;1.62;1.30;;;;;;;40.63;36.86;99813.44;5391110;32;33479;-87
2023/08/04 13:01:54;;;;;;;2.03;1.42;;;;;;;41.46;33.70;99804.88;5403101;32;33607;-87
2023/08/04 13:04:57;;;;;;;1.60;1.50;;;;;;;42.03;33.33;99809.75;5416203;32;34537;-86
2023/08/04 13:08:00;;;;;;;2.37;1.60;;;;;;;42.73;31.13;99797.91;5390757;32;34515;-87
2023/08/04 13:11:02;;;;;;;2.22;1.77;;;;;;;41.82;32.48;99792.78;5390780;32;34608;-86
2023/08/04 13:14:06;;;;;;;1.58;1.37;;;;;;;42.82;31.70;99794.63;5390870;32;33398;-87
2023/08/04 13:17:08;;;;;;;1.67;1.50;;;;;;;43.97;29.82;99791.88;5402973;32;34840;-87
2023/08/04 13:20:12;;;;;;;4.28;1.50;;;;;;;41.98;32.30;99787.56;5385597;33;34914;-87
2023/08/04 13:23:15;;;;;;;3.05;1.75;;;;;;;39.53;36.70;99791.66;5397144;32;33969;-86
2023/08/04 13:26:18;;;;;;;1.65;1.55;;;;;;;38.82;39.34;99788.81;5417769;32;33815;-87
2023/08/04 13:29:22;;;;;;;3.15;1.60;;;;;;;36.67;40.61;99797.16;5385164;33;35337;-87
2023/08/04 13:32:25;;;;;;;3.33;1.83;;;;;;;34.96;45.67;99802.84;5385687;33;33526;-87
2023/08/04 13:35:29;;;;;;;3.10;1.90;;;;;;;33.61;50.25;99802.97;5377402;32;34735;-87
2023/08/04 13:38:32;;;;;;;4.65;2.40;;;;;;;32.48;54.17;99803.97;5416690;32;33777;-86
2023/08/04 13:41:35;;;;;;;2.30;2.10;;;;;;;32.08;54.77;99800.75;5390739;32;34157;-87
2023/08/04 13:44:38;;;;;;;2.17;1.98;;;;;;;31.24;55.89;99803.16;5415794;32;34433;-87
2023/08/04 13:47:41;;;;;;;2.42;2.00;;;;;;;32.52;52.49;99802.13;5390356;32;34196;-86
2023/08/04 13:50:45;;;;;;;3.42;2.20;;;;;;;32.41;52.88;99786.97;5402416;32;33790;-87
2023/08/04 13:53:48;;;;;;;2.70;2.10;;;;;;;33.06;52.02;99795.00;5403902;32;33939;-86
2023/08/04 13:56:51;;;;;;;6.25;1.90;;;;;;;36.21;44.38;99793.31;5384574;33;34317;-86
2023/08/04 13:59:54;;;;;;;3.08;1.92;;;;;;;38.50;40.51;99789.22;5397985;32;34459;-86
2023/08/04 14:02:57;;;;;;;2.08;1.87;;;;;;;40.14;34.00;99781.69;5390792;32;33564;-90
2023/08/04 14:06:02;;;;;;;1.85;1.75;;;;;;;39.54;34.85;99777.16;5402608;32;34730;-87
2023/08/04 14:09:05;;;;;;;2.30;1.67;;;;;;;40.91;33.19;99782.50;5402496;32;33852;-87
2023/08/04 14:12:08;;;;;;;1.80;1.70;;;;;;;41.58;31.43;99772.59;5390357;32;33494;-87
2023/08/04 14:15:11;;;;;;;2.55;1.92;;;;;;;42.22;31.20;99774.59;5384135;32;33796;-87
2023/08/04 14:18:14;;;;;;;2.08;1.67;;;;;;;41.32;33.60;99775.78;5388892;32;34514;-87
2023/08/04 14:21:19;;;;;;;1.92;1.48;;;;;;;39.87;34.78;99765.00;5415876;32;33634;-87
2023/08/04 14:24:22;;;;;;;3.95;1.90;;;;;;;37.32;39.17;99761.97;5402532;32;33657;-87
2023/08/04 14:27:25;;;;;;;2.08;1.90;;;;;;;35.23;44.25;99760.41;5402446;32;33795;-87
2023/08/04 14:30:34;;;;;;;3.45;2.10;;;;;;;33.83;46.79;99753.41;5402972;32;33682;-87
2023/08/04 14:33:36;;;;;;;3.15;2.10;;;;;;;32.61;51.24;99751.91;5390030;32;34950;-87
2023/08/04 14:36:39;;;;;;;4.35;2.15;;;;;;;32.33;53.67;99751.63;5402541;32;33256;-87
2023/08/04 14:39:42;;;;;;;3.55;2.00;;;;;;;31.89;53.92;99751.06;5402039;32;33546;-87
2023/08/04 14:42:45;;;;;;;3.30;2.17;;;;;;;31.69;56.19;99747.06;5402231;32;34602;-87
2023/08/04 14:45:48;;;;;;;2.87;2.50;;;;;;;31.68;56.86;99747.38;5402220;32;33942;-87
2023/08/04 14:48:51;;;;;;;4.55;2.47;;;;;;;31.19;57.12;99744.91;5386007;32;33936;-87
2023/08/04 14:51:53;;;;;;;2.40;2.20;;;;;;;31.16;57.88;99745.59;5389645;32;34568;-87
2023/08/04 14:54:56;;;;;;;2.55;2.33;;;;;;;30.67;58.60;99736.63;5402329;32;34248;-87
2023/08/04 14:57:59;;;;;;;4.45;2.75;;;;;;;30.46;61.76;99742.84;5402582;32;33868;-87
2023/08/04 15:01:06;;;;;;;3.53;2.55;;;;;;;30.49;59.96;99744.97;5390819;32;33926;-87
2023/08/04 15:04:09;;;;;;;4.35;2.58;;;;;;;30.48;62.16;99739.75;5416421;32;34777;-87
2023/08/04 15:07:12;;;;;;;2.67;2.30;;;;;;;30.22;62.41;99745.28;5382992;32;262327;-87
2023/08/04 15:10:15;;;;;;;3.62;2.03;;;;;;;29.93;65.81;99745.84;5390704;32;33943;-87
2023/08/04 15:13:18;;;;;;;5.35;2.58;;;;;;;29.45;67.93;99741.87;5402651;32;33886;-87
2023/08/04 15:16:21;;;;;;;3.22;2.12;;;;;;;29.05;70.76;99752.13;5402712;32;33710;-87
2023/08/04 15:19:24;;;;;;;3.33;2.10;;;;;;;28.86;73.14;99755.06;5402275;32;33957;-87
2023/08/04 15:22:27;;;;;;;2.65;2.45;;;;;;;28.77;74.23;99740.31;5390122;32;33486;-87
2023/08/04 15:25:30;;;;;;;2.83;2.28;;;;;;;28.70;75.15;99741.59;5402554;32;33620;-87
2023/08/04 15:28:32;;;;;;;2.80;2.47;;;;;;;28.46;77.66;99741.03;5403442;32;34074;-86
2023/08/04 15:31:35;;;;;;;3.83;2.60;;;;;;;28.40;77.70;99742.25;5404105;32;33493;-86
2023/08/04 15:34:38;;;;;;;3.65;2.28;;;;;;;28.20;78.87;99738.03;5390387;32;34682;-87
2023/08/04 15:37:41;;;;;;;6.05;2.10;;;;;;;28.02;81.88;99745.31;5402619;32;33612;-87
2023/08/04 15:40:45;;;;;;;2.50;2.22;;;;;;;27.96;81.76;99752.94;5390896;32;34024;-87
2023/08/04 15:43:48;;;;;;;3.42;2.22;;;;;;;27.67;83.79;99758.75;5384142;33;34361;-87
2023/08/04 15:46:51;;;;;;;2.03;1.83;;;;;;;27.52;85.72;99767.31;5384307;33;33925;-87
2023/08/04 15:49:54;;;;;;;6.20;1.90;;;;;;;26.91;86.17;99769.19;5398202;32;33900;-87
